Time;durP1;ratioP1;P1;durP2;ratioP2;P2;SDS_P1;SDS_P2;PMS_P1;PMS_P2;Temp;Humidity;BMP_temperature;BMP_pressure;BME280_temperature;BME280_humidity;BME280_pressure;Samples;Min_cycle;Max_cycle;Signal;HPM_P1;HPM_P2
2022/01/04 00:01:26;;;;;;;4.07;3.03;;;-4.20;99.90;;;;;;5051008;28;20095;-76
2022/01/04 00:03:53;;;;;;;3.70;2.80;;;-4.20;99.90;;;;;;5084914;28;20084;-76
2022/01/04 00:06:22;;;;;;;6.47;3.88;;;-4.30;99.90;;;;;;5053024;28;20263;-78
2022/01/04 00:08:50;;;;;;;11.40;4.13;;;-4.30;99.90;;;;;;5048619;28;20422;-77
2022/01/04 00:11:20;;;;;;;6.10;3.38;;;-4.30;99.90;;;;;;5040322;28;20482;-77
2022/01/04 00:13:47;;;;;;;7.70;3.33;;;-4.40;99.90;;;;;;5052987;28;20531;-77
2022/01/04 00:16:14;;;;;;;6.78;3.47;;;-4.30;99.90;;;;;;5052946;28;20402;-76
2022/01/04 00:18:46;;;;;;;8.68;3.50;;;-4.40;99.90;;;;;;5051917;28;20083;-77
2022/01/04 00:21:13;;;;;;;6.18;3.33;;;-4.40;99.90;;;;;;5051901;28;20060;-77
2022/01/04 00:23:43;;;;;;;10.77;3.38;;;-4.40;99.90;;;;;;5052743;28;20071;-80
2022/01/04 00:26:10;;;;;;;5.60;3.47;;;-4.40;99.90;;;;;;5049178;28;20077;-77
2022/01/04 00:28:38;;;;;;;5.65;3.30;;;-4.40;99.90;;;;;;5049777;28;20141;-78
2022/01/04 00:31:05;;;;;;;8.30;3.53;;;-4.40;99.90;;;;;;5048120;28;20054;-77
2022/01/04 00:33:32;;;;;;;6.85;3.10;;;-4.30;99.90;;;;;;5050455;28;20136;-77
2022/01/04 00:36:00;;;;;;;5.57;3.22;;;-4.30;99.90;;;;;;5052352;28;20788;-77
2022/01/04 00:38:27;;;;;;;4.25;2.75;;;-4.40;99.90;;;;;;5052004;28;20569;-76
2022/01/04 00:40:56;;;;;;;5.07;3.10;;;-4.40;99.90;;;;;;5083722;28;20111;-76
2022/01/04 00:43:23;;;;;;;7.72;3.25;;;-4.40;99.90;;;;;;5052358;28;20040;-76
2022/01/04 00:45:52;;;;;;;4.18;2.95;;;-4.30;99.90;;;;;;5084876;28;20053;-76
2022/01/04 00:51:05;;;;;;;6.65;3.03;;;-4.30;99.90;;;;;;5064178;28;20651;-75
2022/01/04 00:53:33;;;;;;;8.18;3.55;;;-4.30;99.90;;;;;;5052513;28;20562;-76
2022/01/04 00:56:02;;;;;;;6.07;3.10;;;-4.30;99.90;;;;;;5049723;28;20390;-76
2022/01/04 00:58:29;;;;;;;5.30;3.50;;;-4.30;99.90;;;;;;5052056;28;20037;-76
2022/01/04 01:00:56;;;;;;;7.05;3.38;;;-4.30;99.90;;;;;;5052243;28;20069;-76
2022/01/04 01:03:24;;;;;;;3.92;3.15;;;-4.30;99.90;;;;;;5051906;28;20045;-76
2022/01/04 01:05:51;;;;;;;7.65;3.20;;;-4.30;99.90;;;;;;5050472;28;20099;-76
2022/01/04 01:08:18;;;;;;;4.55;3.58;;;-4.30;99.90;;;;;;5051483;28;20048;-77
2022/01/04 01:10:49;;;;;;;5.50;3.75;;;-4.20;99.90;;;;;;5052207;28;20135;-76
2022/01/04 01:13:18;;;;;;;5.57;3.78;;;-4.30;99.90;;;;;;5051709;28;20545;-76
2022/01/04 01:15:46;;;;;;;6.75;3.78;;;-4.30;99.90;;;;;;5051025;28;20053;-76
2022/01/04 01:18:16;;;;;;;7.57;3.90;;;-4.30;99.90;;;;;;5050710;28;20509;-78
2022/01/04 01:20:46;;;;;;;6.13;3.70;;;-4.30;99.90;;;;;;5047480;28;20107;-78
2022/01/04 01:23:14;;;;;;;9.15;4.07;;;-4.30;99.90;;;;;;5048945;28;20045;-78
2022/01/04 01:25:41;;;;;;;6.03;4.35;;;-4.40;99.90;;;;;;5052170;28;20072;-78
2022/01/04 01:28:09;;;;;;;7.45;3.67;;;-4.30;99.90;;;;;;5050360;28;20134;-78
2022/01/04 01:30:40;;;;;;;11.55;3.80;;;-4.30;99.90;;;;;;5051254;28;20107;-78
2022/01/04 01:33:08;;;;;;;5.10;3.83;;;-4.30;99.90;;;;;;5050451;28;20052;-78
2022/01/04 01:35:37;;;;;;;9.88;3.80;;;-4.30;99.90;;;;;;5051386;28;20084;-77
2022/01/04 01:38:06;;;;;;;7.18;3.53;;;-4.30;99.90;;;;;;5050357;28;20114;-78
2022/01/04 01:40:33;;;;;;;4.80;2.92;;;-4.30;99.90;;;;;;5050381;28;20071;-78
2022/01/04 01:43:01;;;;;;;5.72;3.63;;;-4.30;99.90;;;;;;5049919;28;20049;-79
2022/01/04 01:45:29;;;;;;;7.50;3.65;;;-4.30;99.90;;;;;;5050410;28;20052;-79
2022/01/04 01:47:58;;;;;;;8.48;3.50;;;-4.30;99.90;;;;;;5051487;28;20428;-79
2022/01/04 01:50:25;;;;;;;7.25;3.42;;;-4.20;99.90;;;;;;5050273;28;20045;-78
2022/01/04 01:52:54;;;;;;;6.30;3.53;;;-4.20;99.90;;;;;;5051234;28;20429;-79
2022/01/04 01:55:23;;;;;;;7.72;3.10;;;-4.10;99.90;;;;;;5049952;28;20412;-79
2022/01/04 01:57:52;;;;;;;9.02;3.83;;;-4.10;99.90;;;;;;5050923;28;20045;-79
2022/01/04 02:00:23;;;;;;;8.38;3.47;;;-4.20;99.90;;;;;;5049791;28;20501;-79
2022/01/04 02:02:51;;;;;;;8.50;3.60;;;-4.20;99.90;;;;;;5049194;28;20060;-79
2022/01/04 02:05:20;;;;;;;6.20;3.65;;;-4.20;99.90;;;;;;5051315;28;20056;-78
2022/01/04 02:07:47;;;;;;;7.45;3.83;;;-4.10;99.90;;;;;;5045875;28;20077;-79
2022/01/04 02:10:15;;;;;;;5.55;3.67;;;-4.10;99.90;;;;;;5083238;28;20056;-78
2022/01/04 02:12:46;;;;;;;8.02;4.03;;;-4.20;99.90;;;;;;5051266;28;20056;-78
2022/01/04 02:15:17;;;;;;;6.78;3.70;;;-4.20;99.90;;;;;;5050838;28;20064;-78
2022/01/04 02:17:44;;;;;;;5.50;2.92;;;-4.20;99.90;;;;;;5049560;28;20049;-78
2022/01/04 02:20:15;;;;;;;6.72;4.07;;;-4.20;99.90;;;;;;5048199;28;20057;-78
2022/01/04 02:22:44;;;;;;;7.25;4.07;;;-4.30;99.90;;;;;;5065155;28;20470;-78
2022/01/04 02:25:12;;;;;;;5.45;3.78;;;-4.30;99.90;;;;;;5035186;28;20117;-78
2022/01/04 02:27:42;;;;;;;5.43;3.47;;;-4.30;99.90;;;;;;5045579;28;20146;-78
2022/01/04 02:30:15;;;;;;;10.73;4.07;;;-4.30;99.90;;;;;;5049748;28;20152;-77
2022/01/04 02:32:42;;;;;;;8.82;3.78;;;-4.40;99.90;;;;;;5063013;28;20083;-77
2022/01/04 02:35:11;;;;;;;7.38;4.15;;;-4.40;99.90;;;;;;5030804;28;20052;-79
2022/01/04 02:37:40;;;;;;;6.65;3.58;;;-4.40;99.90;;;;;;5050896;28;20513;-78
2022/01/04 02:40:08;;;;;;;5.18;3.17;;;-4.40;99.90;;;;;;5050305;28;20745;-77
2022/01/04 02:42:36;;;;;;;8.07;3.47;;;-4.40;99.90;;;;;;5050254;28;20107;-79
2022/01/04 02:45:04;;;;;;;5.78;3.83;;;-4.30;99.90;;;;;;5048387;28;20037;-78
2022/01/04 02:47:32;;;;;;;7.68;3.88;;;-4.30;99.90;;;;;;5049209;28;20052;-79
2022/01/04 02:49:59;;;;;;;7.47;4.10;;;-4.30;99.90;;;;;;5050085;28;20076;-78
2022/01/04 02:52:27;;;;;;;8.02;3.80;;;-4.30;99.90;;;;;;5050814;28;20056;-78
2022/01/04 02:54:56;;;;;;;6.72;4.05;;;-4.30;99.90;;;;;;5047843;28;20041;-78
2022/01/04 02:57:24;;;;;;;7.18;3.88;;;-4.30;99.90;;;;;;5050087;28;20053;-78
2022/01/04 02:59:51;;;;;;;7.68;3.97;;;-4.30;99.90;;;;;;5050261;28;20049;-78
2022/01/04 03:02:19;;;;;;;5.50;3.40;;;-4.30;99.90;;;;;;5049643;28;20045;-78
2022/01/04 03:04:47;;;;;;;5.15;3.47;;;-4.30;99.90;;;;;;5054249;28;20044;-77
2022/01/04 03:07:14;;;;;;;6.53;3.67;;;-4.30;99.90;;;;;;5053912;28;20045;-76
2022/01/04 03:09:42;;;;;;;7.20;3.78;;;-4.20;99.90;;;;;;5053044;28;20052;-77
2022/01/04 03:12:12;;;;;;;6.70;3.75;;;-4.20;99.90;;;;;;5051891;28;20086;-76
2022/01/04 03:14:39;;;;;;;5.80;3.78;;;-4.20;99.90;;;;;;5054470;28;20072;-76
2022/01/04 03:17:07;;;;;;;8.07;3.42;;;-4.20;99.90;;;;;;5068998;28;20057;-75
2022/01/04 03:19:35;;;;;;;4.63;3.42;;;-4.20;99.90;;;;;;5069660;28;20060;-76
2022/01/04 03:22:02;;;;;;;6.50;3.35;;;-4.20;99.90;;;;;;5051320;28;20053;-77
2022/01/04 03:24:29;;;;;;;9.27;4.00;;;-4.20;99.90;;;;;;5053719;28;20498;-76
2022/01/04 03:26:57;;;;;;;7.95;4.18;;;-4.20;99.90;;;;;;5085824;28;20159;-77
2022/01/04 03:29:26;;;;;;;12.40;4.20;;;-4.20;99.90;;;;;;5052417;28;20064;-76
2022/01/04 03:31:57;;;;;;;6.05;3.80;;;-4.20;99.90;;;;;;5053785;28;20049;-75
2022/01/04 03:34:25;;;;;;;7.13;3.97;;;-4.20;99.90;;;;;;5053440;28;20456;-76
2022/01/04 03:36:52;;;;;;;6.10;3.60;;;-4.20;99.90;;;;;;5053224;28;20044;-76
2022/01/04 03:39:20;;;;;;;6.65;3.92;;;-4.20;99.90;;;;;;5051928;28;20041;-76
2022/01/04 03:41:50;;;;;;;4.78;3.28;;;-4.20;99.90;;;;;;5053443;28;20052;-76
2022/01/04 03:44:19;;;;;;;6.50;3.53;;;-4.20;99.90;;;;;;5053241;28;20041;-76
2022/01/04 03:46:50;;;;;;;6.53;3.58;;;-4.20;99.90;;;;;;5053253;28;20522;-76
2022/01/04 03:49:17;;;;;;;7.18;3.60;;;-4.20;99.90;;;;;;5052123;28;20413;-76
2022/01/04 03:51:45;;;;;;;8.98;3.30;;;-4.20;99.90;;;;;;5051691;28;20098;-76
2022/01/04 03:54:13;;;;;;;5.40;3.47;;;-4.20;99.90;;;;;;5052895;28;20083;-76
2022/01/04 03:56:41;;;;;;;4.70;3.00;;;-4.20;99.90;;;;;;5052351;28;20048;-76
2022/01/04 03:59:08;;;;;;;8.95;3.28;;;-4.10;99.90;;;;;;5053769;28;20057;-77
2022/01/04 04:01:36;;;;;;;4.10;3.38;;;-4.10;99.90;;;;;;5053487;28;20060;-78
2022/01/04 04:04:05;;;;;;;8.00;3.78;;;-4.20;99.90;;;;;;5053076;28;20497;-78
2022/01/04 04:06:33;;;;;;;7.45;3.50;;;-4.20;99.90;;;;;;5051822;28;20064;-79
2022/01/04 04:09:00;;;;;;;5.00;3.50;;;-4.20;99.90;;;;;;5053398;28;20413;-78
2022/01/04 04:11:28;;;;;;;7.40;3.88;;;-4.20;99.90;;;;;;5052554;28;20063;-80
2022/01/04 04:13:55;;;;;;;7.60;3.90;;;-4.30;99.90;;;;;;5051812;28;20048;-80
2022/01/04 04:16:23;;;;;;;5.43;3.45;;;-4.20;99.90;;;;;;5051603;28;20075;-79
2022/01/04 04:18:50;;;;;;;6.47;3.10;;;-4.20;99.90;;;;;;5052385;28;20056;-78
2022/01/04 04:21:19;;;;;;;6.93;4.00;;;-4.20;99.90;;;;;;5033153;28;20049;-77
2022/01/04 04:23:48;;;;;;;5.63;3.60;;;-4.20;99.90;;;;;;5082866;28;20033;-77
2022/01/04 04:26:16;;;;;;;7.80;3.38;;;-4.20;99.90;;;;;;5051121;28;20076;-77
2022/01/04 04:28:43;;;;;;;6.15;3.80;;;-4.20;99.90;;;;;;5051037;28;20045;-77
2022/01/04 04:31:11;;;;;;;7.25;2.90;;;-4.20;99.90;;;;;;5052311;28;20160;-77
2022/01/04 04:33:38;;;;;;;5.45;3.53;;;-4.20;99.90;;;;;;5049545;28;20048;-78
2022/01/04 04:36:08;;;;;;;5.38;3.03;;;-4.20;99.90;;;;;;5035521;28;20072;-78
2022/01/04 04:38:37;;;;;;;5.35;3.17;;;-4.20;99.90;;;;;;5051469;28;20048;-78
2022/01/04 04:41:04;;;;;;;7.47;3.95;;;-4.10;99.90;;;;;;5051857;28;20064;-78
2022/01/04 04:43:32;;;;;;;5.88;3.85;;;-4.10;99.90;;;;;;5051954;28;20386;-78
2022/01/04 04:45:59;;;;;;;5.68;3.35;;;-4.10;99.90;;;;;;5084485;28;20048;-78
2022/01/04 04:48:26;;;;;;;4.68;3.38;;;-4.20;99.90;;;;;;5052796;28;20045;-78
2022/01/04 04:50:54;;;;;;;9.23;3.25;;;-4.10;99.90;;;;;;5051493;28;20049;-78
2022/01/04 04:53:21;;;;;;;8.25;3.80;;;-4.10;99.90;;;;;;5050698;28;20107;-77
2022/01/04 04:55:50;;;;;;;6.55;3.15;;;-4.10;99.90;;;;;;5052714;28;20049;-77
2022/01/04 04:58:17;;;;;;;6.78;3.28;;;-4.10;99.90;;;;;;5052683;28;20049;-77
2022/01/04 05:00:45;;;;;;;6.60;3.30;;;-4.10;99.90;;;;;;5051597;28;20053;-78
2022/01/04 05:03:12;;;;;;;8.40;3.78;;;-4.10;99.90;;;;;;5052082;28;20509;-78
2022/01/04 05:05:40;;;;;;;7.50;3.53;;;-4.10;99.90;;;;;;5052069;28;20524;-78
2022/01/04 05:08:07;;;;;;;8.00;4.13;;;-4.10;99.90;;;;;;5052494;28;20679;-78
2022/01/04 05:10:34;;;;;;;7.28;3.38;;;-4.10;99.90;;;;;;5082491;28;20147;-78
2022/01/04 05:13:03;;;;;;;6.05;3.28;;;-4.10;99.90;;;;;;5051314;28;20079;-79
2022/01/04 05:15:31;;;;;;;6.43;3.65;;;-4.20;99.90;;;;;;5051206;28;20586;-78
2022/01/04 05:17:58;;;;;;;4.88;3.80;;;-4.10;99.90;;;;;;5050559;28;20136;-78
2022/01/04 05:20:25;;;;;;;7.05;3.35;;;-4.10;99.90;;;;;;5051373;28;20106;-78
2022/01/04 05:22:53;;;;;;;7.90;3.35;;;-4.10;99.90;;;;;;5051697;28;20140;-78
2022/01/04 05:25:20;;;;;;;6.75;3.38;;;-4.10;99.90;;;;;;5051065;28;20052;-79
2022/01/04 05:27:48;;;;;;;6.32;3.95;;;-4.10;99.90;;;;;;5050499;28;20405;-79
2022/01/04 05:30:16;;;;;;;9.52;3.55;;;-4.10;99.90;;;;;;5083349;28;20051;-77
2022/01/04 05:32:44;;;;;;;10.15;3.67;;;-4.10;99.90;;;;;;5050475;28;20049;-78
2022/01/04 05:35:11;;;;;;;6.78;4.10;;;-4.10;99.90;;;;;;5050688;28;20049;-77
2022/01/04 05:37:38;;;;;;;5.65;3.65;;;-4.10;99.90;;;;;;5050383;28;20470;-78
2022/01/04 05:40:07;;;;;;;7.30;3.90;;;-4.20;99.90;;;;;;5065775;28;20179;-77
2022/01/04 05:42:35;;;;;;;8.60;4.70;;;-4.30;99.90;;;;;;5051436;28;20053;-78
2022/01/04 05:45:02;;;;;;;8.57;3.65;;;-4.30;99.90;;;;;;5062849;28;20399;-79
2022/01/04 05:47:32;;;;;;;7.82;3.80;;;-4.20;99.90;;;;;;5045258;28;20139;-79
2022/01/04 05:49:59;;;;;;;6.88;3.72;;;-4.20;99.90;;;;;;5049950;28;20520;-78
2022/01/04 05:52:26;;;;;;;6.57;3.92;;;-4.20;99.90;;;;;;5050144;28;20103;-78
2022/01/04 05:54:54;;;;;;;11.75;5.13;;;-4.20;99.90;;;;;;5049398;28;20053;-78
2022/01/04 05:57:21;;;;;;;9.13;3.95;;;-4.20;99.90;;;;;;5051415;28;20468;-78
2022/01/04 05:59:49;;;;;;;8.43;3.83;;;-4.20;99.90;;;;;;5050540;28;20095;-78
2022/01/04 06:02:16;;;;;;;10.48;4.63;;;-4.20;99.90;;;;;;5045913;28;20045;-78
2022/01/04 06:04:45;;;;;;;8.13;4.05;;;-4.20;99.90;;;;;;5046324;28;20575;-79
2022/01/04 06:07:13;;;;;;;7.70;4.00;;;-4.20;99.90;;;;;;5050302;28;20045;-79
2022/01/04 06:09:43;;;;;;;6.38;4.38;;;-4.20;99.90;;;;;;5048835;28;20057;-78
2022/01/04 06:15:02;;;;;;;9.00;4.45;;;-4.20;99.90;;;;;;5048376;28;20057;-79
2022/01/04 06:17:34;;;;;;;6.00;4.07;;;-4.20;99.90;;;;;;5045626;28;20069;-78
2022/01/04 06:20:07;;;;;;;8.45;4.35;;;-4.20;99.90;;;;;;5045664;28;20494;-77
2022/01/04 06:22:36;;;;;;;9.63;4.82;;;-4.20;99.90;;;;;;5050650;28;20053;-76
2022/01/04 06:25:06;;;;;;;12.00;4.63;;;-4.20;99.90;;;;;;5049887;28;20049;-77
2022/01/04 06:27:34;;;;;;;9.82;4.18;;;-4.10;99.90;;;;;;5065496;28;20078;-76
2022/01/04 06:30:03;;;;;;;6.15;4.07;;;-4.10;99.90;;;;;;5048927;28;20540;-75
2022/01/04 06:32:31;;;;;;;8.18;4.13;;;-4.10;99.90;;;;;;5049804;28;20140;-77
2022/01/04 06:34:58;;;;;;;9.65;4.90;;;-4.10;99.90;;;;;;5050163;28;20428;-76
2022/01/04 06:37:27;;;;;;;8.70;4.60;;;-4.10;99.90;;;;;;5048024;28;20045;-77
2022/01/04 06:39:54;;;;;;;10.63;4.82;;;-4.10;99.90;;;;;;5049105;28;20059;-77
2022/01/04 06:42:22;;;;;;;11.20;5.00;;;-4.10;99.90;;;;;;5047731;28;20049;-76
2022/01/04 06:44:49;;;;;;;7.35;4.80;;;-4.10;99.90;;;;;;5047681;28;20078;-77
2022/01/04 06:47:16;;;;;;;10.65;5.80;;;-4.10;99.90;;;;;;5048853;28;20059;-78
2022/01/04 06:49:44;;;;;;;6.22;4.28;;;-4.10;99.90;;;;;;5049036;28;20056;-77
2022/01/04 06:52:11;;;;;;;7.95;4.20;;;-4.10;99.90;;;;;;5049738;28;20102;-77
2022/01/04 06:54:40;;;;;;;7.22;4.15;;;-4.10;99.90;;;;;;5048694;28;20045;-76
2022/01/04 06:57:07;;;;;;;9.32;3.97;;;-4.10;99.90;;;;;;5048292;28;20398;-77
2022/01/04 06:59:35;;;;;;;8.25;4.97;;;-4.10;99.90;;;;;;5048226;28;20052;-78
2022/01/04 07:02:03;;;;;;;9.55;4.10;;;-4.10;99.90;;;;;;5049052;28;20064;-77
2022/01/04 07:04:30;;;;;;;7.20;4.35;;;-4.20;99.90;;;;;;5049268;28;20045;-77
2022/01/04 07:06:57;;;;;;;6.82;4.40;;;-4.20;99.90;;;;;;5045741;28;20111;-77
2022/01/04 07:09:25;;;;;;;8.32;4.05;;;-4.10;99.90;;;;;;5048193;28;20548;-78
2022/01/04 07:11:54;;;;;;;11.88;4.70;;;-4.10;99.90;;;;;;5049626;28;20049;-76
2022/01/04 07:14:21;;;;;;;8.30;4.57;;;-4.20;99.90;;;;;;5049196;28;20140;-77
2022/01/04 07:16:49;;;;;;;8.10;4.45;;;-4.20;99.90;;;;;;5071832;28;20111;-77
2022/01/04 07:19:16;;;;;;;11.05;4.45;;;-4.20;99.90;;;;;;5049181;28;20036;-77
2022/01/04 07:21:44;;;;;;;10.48;4.85;;;-4.10;99.90;;;;;;5046425;28;20099;-78
2022/01/04 07:24:12;;;;;;;9.40;5.20;;;-4.00;99.90;;;;;;5065557;28;20049;-78
2022/01/04 07:26:39;;;;;;;7.07;4.20;;;-4.00;99.90;;;;;;5045485;28;20048;-79
2022/01/04 07:29:08;;;;;;;8.73;4.78;;;-4.00;99.90;;;;;;5030262;28;20119;-78
2022/01/04 07:31:35;;;;;;;6.75;4.80;;;-4.00;99.90;;;;;;5029503;28;20510;-77
2022/01/04 07:34:03;;;;;;;8.38;4.68;;;-3.90;99.90;;;;;;5039781;28;20839;-79
2022/01/04 07:36:31;;;;;;;12.13;5.25;;;-3.90;99.90;;;;;;5049607;28;20049;-80
2022/01/04 07:39:02;;;;;;;9.48;5.03;;;-3.90;99.90;;;;;;5049943;28;20098;-83
2022/01/04 07:41:30;;;;;;;10.18;4.63;;;-3.90;99.90;;;;;;5048565;28;20080;-78
2022/01/04 07:43:58;;;;;;;12.32;4.72;;;-3.90;99.90;;;;;;5050337;28;20357;-82
2022/01/04 07:46:29;;;;;;;7.68;4.25;;;-3.90;99.90;;;;;;5048092;28;20057;-84
2022/01/04 07:48:57;;;;;;;10.95;5.00;;;-3.90;99.90;;;;;;5051513;28;20040;-83
2022/01/04 07:51:25;;;;;;;10.40;4.68;;;-3.90;99.90;;;;;;5052479;28;20509;-79
2022/01/04 07:53:52;;;;;;;7.40;5.10;;;-3.90;99.90;;;;;;4984275;28;20069;-80
2022/01/04 07:56:19;;;;;;;6.65;4.40;;;-3.90;99.90;;;;;;5052823;28;20052;-77
2022/01/04 07:58:47;;;;;;;10.85;5.38;;;-3.90;99.90;;;;;;5053978;28;20047;-79
2022/01/04 08:01:14;;;;;;;9.93;4.95;;;-3.90;99.90;;;;;;5051703;28;20141;-81
2022/01/04 08:03:43;;;;;;;11.85;5.25;;;-3.90;99.90;;;;;;5053636;28;20041;-80
2022/01/04 08:06:10;;;;;;;8.52;4.80;;;-3.90;99.90;;;;;;5053295;28;20049;-81
2022/01/04 08:08:38;;;;;;;9.77;5.03;;;-3.90;99.90;;;;;;5048912;28;20049;-82
2022/01/04 08:11:05;;;;;;;8.52;4.78;;;-3.90;99.90;;;;;;5080043;28;20106;-80
2022/01/04 08:13:33;;;;;;;12.35;5.75;;;-3.80;99.90;;;;;;5053309;28;20445;-81
2022/01/04 08:16:01;;;;;;;11.52;5.43;;;-3.80;99.90;;;;;;5051888;28;20472;-80
2022/01/04 08:18:28;;;;;;;10.38;5.38;;;-3.80;99.90;;;;;;5066172;28;20509;-79
2022/01/04 08:20:58;;;;;;;8.52;5.40;;;-3.80;99.90;;;;;;5052869;28;20057;-81
2022/01/04 08:23:25;;;;;;;9.85;5.03;;;-3.60;99.90;;;;;;5052090;28;20132;-79
2022/01/04 08:25:54;;;;;;;8.48;4.68;;;-3.60;99.90;;;;;;5050638;28;20077;-78
2022/01/04 08:28:24;;;;;;;10.73;5.10;;;-3.70;99.90;;;;;;5051537;28;20551;-79
2022/01/04 08:30:52;;;;;;;9.30;5.22;;;-3.60;99.90;;;;;;5049574;28;20071;-78
2022/01/04 08:33:19;;;;;;;5.40;4.63;;;-3.60;99.90;;;;;;5052283;28;20118;-80
2022/01/04 08:35:47;;;;;;;8.05;5.45;;;-3.60;99.90;;;;;;5051081;28;20045;-84
2022/01/04 08:38:16;;;;;;;8.50;5.40;;;-3.60;99.90;;;;;;5050117;28;20528;-84
2022/01/04 08:40:47;;;;;;;12.95;5.18;;;-3.60;99.90;;;;;;5050999;28;20072;-83
2022/01/04 08:43:16;;;;;;;9.38;4.70;;;-3.60;99.90;;;;;;5050182;28;20072;-85
2022/01/04 08:45:44;;;;;;;9.07;4.75;;;-3.60;99.90;;;;;;5051271;28;20122;-82
2022/01/04 08:48:11;;;;;;;13.75;4.90;;;-3.60;99.90;;;;;;5048762;28;20132;-83
2022/01/04 08:50:39;;;;;;;6.88;4.65;;;-3.60;99.90;;;;;;5051460;28;20057;-86
2022/01/04 08:53:10;;;;;;;13.32;5.95;;;-3.60;99.90;;;;;;5050908;28;20037;-85
2022/01/04 08:55:40;;;;;;;15.02;5.97;;;-3.60;99.90;;;;;;5073529;28;20045;-84
2022/01/04 08:58:08;;;;;;;9.65;5.20;;;-3.60;99.90;;;;;;5050300;28;20045;-85
2022/01/04 09:00:36;;;;;;;9.60;5.65;;;-3.70;99.90;;;;;;5048894;28;20048;-81
2022/01/04 09:03:04;;;;;;;10.48;5.28;;;-3.70;99.90;;;;;;5051394;28;20048;-82
2022/01/04 09:05:32;;;;;;;11.68;6.28;;;-3.70;99.90;;;;;;5047674;28;20466;-83
2022/01/04 09:08:00;;;;;;;10.50;6.13;;;-3.60;99.90;;;;;;5046482;28;20052;-84
2022/01/04 09:10:28;;;;;;;11.80;5.97;;;-3.60;99.90;;;;;;5044923;28;20540;-85
2022/01/04 09:13:01;;;;;;;10.95;5.30;;;-3.50;99.90;;;;;;5048245;28;20486;-84
2022/01/04 09:15:46;;;;;;;9.95;5.68;;;-3.40;99.90;;;;;;5061462;28;20118;-79
2022/01/04 09:21:00;;;;;;;12.00;5.22;;;-3.40;99.90;;;;;;5049796;28;20054;-80
2022/01/04 09:23:27;;;;;;;14.23;6.10;;;-3.30;99.90;;;;;;5052276;28;20053;-80
2022/01/04 09:25:55;;;;;;;13.52;5.45;;;-3.30;99.90;;;;;;5049959;28;20040;-81
2022/01/04 09:28:25;;;;;;;13.15;6.10;;;-3.30;99.90;;;;;;5049229;28;20041;-80
2022/01/04 09:30:53;;;;;;;12.02;5.65;;;-3.20;99.90;;;;;;5050729;28;20099;-81
2022/01/04 09:33:22;;;;;;;12.55;6.43;;;-3.30;99.90;;;;;;5046461;28;20052;-78
2022/01/04 09:35:50;;;;;;;15.43;6.82;;;-3.30;99.90;;;;;;5048107;28;20143;-80
2022/01/04 09:38:18;;;;;;;11.25;5.90;;;-3.30;99.90;;;;;;5050913;28;20061;-78
2022/01/04 09:40:48;;;;;;;12.45;6.78;;;-3.30;99.90;;;;;;5050657;28;20567;-79
2022/01/04 09:43:17;;;;;;;11.45;5.95;;;-3.20;99.90;;;;;;5051406;28;20505;-80
2022/01/04 09:45:46;;;;;;;13.02;6.93;;;-3.20;99.90;;;;;;5051552;28;20053;-80
2022/01/04 09:48:13;;;;;;;10.20;5.78;;;-3.20;99.90;;;;;;5050485;28;20045;-78
2022/01/04 09:50:43;;;;;;;15.05;6.85;;;-3.20;99.90;;;;;;5050045;28;20072;-78
2022/01/04 09:53:18;;;;;;;12.88;6.93;;;-3.20;99.90;;;;;;5046690;28;20463;-78
2022/01/04 09:55:49;;;;;;;15.55;6.45;;;-3.10;99.90;;;;;;5050286;28;20048;-79
2022/01/04 09:58:19;;;;;;;11.00;6.50;;;-3.10;99.90;;;;;;5050947;28;20451;-76
2022/01/04 10:00:50;;;;;;;16.63;8.05;;;-3.10;99.90;;;;;;5048934;28;20620;-79
2022/01/04 10:03:21;;;;;;;12.85;6.57;;;-3.10;99.90;;;;;;5050975;28;20053;-79
2022/01/04 10:06:00;;;;;;;12.60;7.30;;;-3.20;99.90;;;;;;5051155;28;20501;-78
2022/01/04 10:08:28;;;;;;;16.60;6.85;;;-3.20;99.90;;;;;;5050513;28;20663;-79
2022/01/04 10:11:04;;;;;;;13.48;7.35;;;-3.20;99.90;;;;;;5050838;28;20258;-77
2022/01/04 10:13:32;;;;;;;15.32;7.38;;;-3.30;99.90;;;;;;5039813;28;20139;-78
2022/01/04 10:16:01;;;;;;;11.88;6.70;;;-3.20;99.90;;;;;;5049209;28;20531;-78
2022/01/04 10:18:29;;;;;;;13.88;7.60;;;-3.20;99.90;;;;;;5081946;28;20037;-78
2022/01/04 10:21:14;;;;;;;12.10;7.18;;;-3.20;99.90;;;;;;5050823;28;20055;-83
2022/01/04 10:23:51;;;;;;;13.48;7.25;;;-3.10;99.90;;;;;;5044173;28;20053;-80
2022/01/04 10:26:28;;;;;;;14.13;7.72;;;-3.10;99.90;;;;;;5081992;28;20048;-79
2022/01/04 10:28:55;;;;;;;12.23;7.78;;;-3.10;99.90;;;;;;5049873;28;20517;-77
2022/01/04 10:31:25;;;;;;;13.73;7.13;;;-3.00;99.90;;;;;;5064449;28;20162;-78
2022/01/04 10:33:54;;;;;;;15.02;7.82;;;-3.10;99.90;;;;;;5045469;28;20045;-76
2022/01/04 10:36:25;;;;;;;13.93;7.32;;;-3.10;99.90;;;;;;5048509;28;20084;-81
2022/01/04 10:38:53;;;;;;;15.68;7.80;;;-3.00;99.90;;;;;;5049496;28;20048;-79
2022/01/04 10:41:26;;;;;;;10.65;7.22;;;-3.00;99.90;;;;;;5049198;28;20566;-78
2022/01/04 10:43:55;;;;;;;;;;;-3.00;99.90;;;;;;5049196;28;20049;-78
2022/01/04 10:46:35;;;;;;;15.02;7.45;;;-2.90;99.90;;;;;;5050169;28;20023;-78
2022/01/04 10:49:15;;;;;;;17.75;8.05;;;-2.90;99.90;;;;;;5050306;28;20115;-77
2022/01/04 10:51:43;;;;;;;20.83;8.07;;;-2.90;99.90;;;;;;5053804;28;20398;-77
2022/01/04 10:54:19;;;;;;;16.67;8.98;;;-2.90;99.90;;;;;;5049965;28;20049;-78
2022/01/04 10:56:47;;;;;;;17.77;8.48;;;-3.00;99.90;;;;;;5050202;28;20053;-78
2022/01/04 10:59:15;;;;;;;17.08;7.90;;;-3.00;99.90;;;;;;5049491;28;20110;-78
2022/01/04 11:01:47;;;;;;;16.65;7.85;;;-3.00;99.90;;;;;;5050720;28;20391;-78
2022/01/04 11:04:16;;;;;;;16.38;7.47;;;-2.90;99.90;;;;;;5048813;28;20045;-78
2022/01/04 11:06:44;;;;;;;17.95;7.32;;;-2.90;99.90;;;;;;5050323;28;20060;-78
2022/01/04 11:09:13;;;;;;;17.67;8.55;;;-2.90;99.90;;;;;;5049729;28;20052;-81
2022/01/04 11:11:42;;;;;;;12.52;7.65;;;-2.80;99.90;;;;;;5049695;28;20056;-80
2022/01/04 11:14:13;;;;;;;11.80;7.60;;;-2.80;99.90;;;;;;5048094;28;20041;-82
2022/01/04 11:16:43;;;;;;;15.93;8.15;;;-2.80;99.90;;;;;;5044843;28;20533;-82
2022/01/04 11:19:11;;;;;;;14.07;7.50;;;-2.80;99.90;;;;;;5046344;28;20068;-81
2022/01/04 11:21:41;;;;;;;15.07;7.68;;;-2.80;99.90;;;;;;5062721;28;20064;-81
2022/01/04 11:24:13;;;;;;;18.50;8.13;;;-2.80;99.90;;;;;;5066995;28;20045;-80
2022/01/04 11:26:41;;;;;;;15.10;7.80;;;-2.80;99.90;;;;;;5080755;28;20057;-75
2022/01/04 11:29:09;;;;;;;12.60;7.25;;;-2.80;99.90;;;;;;5057582;28;20095;-78
2022/01/04 11:31:52;;;;;;;15.18;7.25;;;-2.80;99.90;;;;;;5083381;28;20053;-79
2022/01/04 11:34:37;;;;;;;12.25;7.47;;;-2.80;99.90;;;;;;5051972;28;20049;-80
2022/01/04 11:37:07;;;;;;;16.60;7.88;;;-2.80;99.90;;;;;;5052588;28;20106;-80
2022/01/04 11:39:38;;;;;;;15.50;7.22;;;-2.80;99.90;;;;;;5052826;28;20083;-80
2022/01/04 11:42:08;;;;;;;13.60;7.28;;;-2.90;99.90;;;;;;5072351;28;20578;-80
2022/01/04 11:44:44;;;;;;;13.50;6.63;;;-2.80;99.90;;;;;;5052409;28;20053;-81
2022/01/04 11:47:16;;;;;;;14.55;7.88;;;-2.80;99.90;;;;;;5050876;28;20045;-80
2022/01/04 11:50:10;;;;;;;12.40;8.30;;;-2.80;99.90;;;;;;5053490;28;20102;-81
2022/01/04 11:52:40;;;;;;;16.23;7.95;;;-2.80;99.90;;;;;;5053467;28;20501;-79
2022/01/04 11:55:22;;;;;;;17.80;7.93;;;-2.80;99.90;;;;;;5053370;28;20102;-81
2022/01/04 11:57:50;;;;;;;19.35;8.35;;;-2.90;99.90;;;;;;5059200;28;20497;-80
2022/01/04 12:00:29;;;;;;;17.73;7.28;;;-2.80;99.90;;;;;;5065223;28;20569;-81
2022/01/04 12:03:07;;;;;;;18.27;8.20;;;-2.80;99.90;;;;;;5051298;28;20048;-79
2022/01/04 12:05:38;;;;;;;15.60;8.48;;;-2.80;99.90;;;;;;5052826;28;20509;-81
2022/01/04 12:08:20;;;;;;;16.10;9.43;;;-2.90;99.90;;;;;;5042727;28;20452;-81
2022/01/04 12:10:50;;;;;;;17.35;8.45;;;-2.90;99.90;;;;;;5049256;28;20049;-82
2022/01/04 12:13:19;;;;;;;16.92;8.52;;;-2.80;99.90;;;;;;5051438;28;20444;-83
2022/01/04 12:15:57;;;;;;;16.40;8.23;;;-2.80;99.90;;;;;;5067630;28;20135;-84
2022/01/04 12:18:58;;;;;;;13.70;7.03;;;-2.80;99.90;;;;;;5048281;28;20084;-83
2022/01/04 12:21:42;;;;;;;13.55;8.05;;;-2.70;99.90;;;;;;5030639;28;20486;-83
2022/01/04 12:24:14;;;;;;;15.23;8.38;;;-2.70;99.90;;;;;;5048054;28;20045;-78
2022/01/04 12:26:42;;;;;;;17.48;9.05;;;-2.70;99.90;;;;;;5079869;28;20053;-82
2022/01/04 12:29:27;;;;;;;18.70;8.85;;;-2.60;99.90;;;;;;5051682;28;20033;-81
2022/01/04 12:32:02;;;;;;;17.60;8.45;;;-2.70;99.90;;;;;;5067617;28;20409;-83
2022/01/04 12:34:53;;;;;;;15.60;7.75;;;-2.70;99.90;;;;;;5052961;28;20053;-81
2022/01/04 12:37:21;;;;;;;16.63;7.90;;;-2.70;99.90;;;;;;5051111;28;20420;-81
2022/01/04 12:39:52;;;;;;;13.85;8.68;;;-2.70;99.90;;;;;;5052838;28;20052;-80
2022/01/04 12:42:20;;;;;;;16.70;7.60;;;-2.60;99.90;;;;;;5050465;28;20048;-78
2022/01/04 12:44:57;;;;;;;17.40;8.48;;;-2.70;99.90;;;;;;5052256;28;20043;-80
2022/01/04 12:47:26;;;;;;;15.23;9.13;;;-2.70;99.90;;;;;;5037334;28;20045;-77
2022/01/04 12:49:58;;;;;;;14.52;8.30;;;-2.80;99.90;;;;;;5060651;28;20051;-78
2022/01/04 12:52:26;;;;;;;14.40;7.53;;;-2.80;99.90;;;;;;5050541;28;20052;-77
2022/01/04 12:54:53;;;;;;;14.65;7.65;;;-2.70;99.90;;;;;;5051324;28;20412;-80
2022/01/04 12:57:23;;;;;;;18.50;8.07;;;-2.70;99.90;;;;;;5051831;28;20127;-80
2022/01/04 12:59:54;;;;;;;15.05;8.02;;;-2.70;99.90;;;;;;5050857;28;20071;-77
2022/01/04 13:02:25;;;;;;;16.20;8.18;;;-2.70;99.90;;;;;;5067653;28;20049;-82